Time;durP1;ratioP1;P1;durP2;ratioP2;P2;SDS_P1;SDS_P2;PMS_P1;PMS_P2;Temp;Humidity;BMP_temperature;BMP_pressure;BME280_temperature;BME280_humidity;BME280_pressure;Samples;Min_cycle;Max_cycle;Signal;HPM_P1;HPM_P2
2022/03/01 00:01:12;;;;;;;16.38;7.68;;;;;;;;;;4986027;28;20041;-60
2022/03/01 00:03:38;;;;;;;17.25;8.07;;;;;;;;;;4979791;28;20476;-61
2022/03/01 00:06:03;;;;;;;16.40;8.05;;;;;;;;;;4975765;28;20469;-61
2022/03/01 00:08:29;;;;;;;15.35;7.90;;;;;;;;;;4986796;28;20484;-60
2022/03/01 00:11:00;;;;;;;16.65;7.80;;;;;;;;;;4988949;28;20038;-60
2022/03/01 00:13:25;;;;;;;16.40;7.82;;;;;;;;;;4990588;28;20031;-60
2022/03/01 00:15:51;;;;;;;15.65;7.80;;;;;;;;;;4995359;28;20036;-61
2022/03/01 00:18:16;;;;;;;15.23;7.75;;;;;;;;;;4980678;28;20034;-60
2022/03/01 00:20:42;;;;;;;15.35;7.82;;;;;;;;;;4984353;28;20046;-61
2022/03/01 00:23:07;;;;;;;16.60;7.90;;;;;;;;;;4990731;28;20385;-60
2022/03/01 00:25:33;;;;;;;14.00;7.90;;;;;;;;;;4976258;28;20031;-60
2022/03/01 00:27:58;;;;;;;15.05;7.65;;;;;;;;;;4982613;28;20379;-60
2022/03/01 00:30:23;;;;;;;14.32;7.90;;;;;;;;;;4993074;28;20033;-61
2022/03/01 00:32:49;;;;;;;18.38;7.93;;;;;;;;;;4983702;28;20041;-61
2022/03/01 00:35:15;;;;;;;15.13;7.85;;;;;;;;;;4990094;28;20092;-60
2022/03/01 00:37:40;;;;;;;15.35;7.75;;;;;;;;;;5001159;28;20500;-61
2022/03/01 00:40:07;;;;;;;17.38;7.95;;;;;;;;;;4989540;28;20034;-62
2022/03/01 00:42:32;;;;;;;18.33;8.90;;;;;;;;;;4992765;28;20795;-61
2022/03/01 00:44:57;;;;;;;17.65;8.38;;;;;;;;;;4989118;28;20030;-61
2022/03/01 00:47:23;;;;;;;16.85;8.18;;;;;;;;;;4983946;28;20049;-63
2022/03/01 00:49:48;;;;;;;14.68;7.70;;;;;;;;;;4975511;28;20106;-62
2022/03/01 00:52:14;;;;;;;15.52;7.97;;;;;;;;;;4991825;28;20030;-62
2022/03/01 00:54:39;;;;;;;16.05;7.75;;;;;;;;;;4989970;28;20035;-62
2022/03/01 00:57:05;;;;;;;15.73;7.60;;;;;;;;;;4976842;28;20043;-62
2022/03/01 00:59:30;;;;;;;16.08;7.55;;;;;;;;;;4991932;28;20092;-62
2022/03/01 01:01:56;;;;;;;15.63;7.38;;;;;;;;;;4987378;28;20391;-62
2022/03/01 01:04:21;;;;;;;15.80;7.75;;;;;;;;;;4992573;28;20030;-62
2022/03/01 01:06:47;;;;;;;16.65;7.63;;;;;;;;;;4978747;28;20035;-62
2022/03/01 01:09:14;;;;;;;14.88;7.60;;;;;;;;;;4990795;28;20085;-61
2022/03/01 01:11:41;;;;;;;13.40;6.82;;;;;;;;;;4979774;28;20114;-61
2022/03/01 01:14:06;;;;;;;19.20;7.72;;;;;;;;;;4985608;28;20557;-62
2022/03/01 01:16:31;;;;;;;13.95;7.10;;;;;;;;;;4976825;28;20109;-62
2022/03/01 01:18:57;;;;;;;14.30;7.43;;;;;;;;;;5016937;28;20030;-61
2022/03/01 01:21:22;;;;;;;13.95;6.72;;;;;;;;;;4992167;28;20404;-62
2022/03/01 01:23:48;;;;;;;13.95;7.40;;;;;;;;;;4982634;28;20432;-62
2022/03/01 01:26:13;;;;;;;14.73;7.03;;;;;;;;;;5016425;28;20042;-61
2022/03/01 01:28:39;;;;;;;16.10;7.28;;;;;;;;;;4988610;28;20056;-62
2022/03/01 01:31:04;;;;;;;13.02;7.05;;;;;;;;;;4992091;28;20030;-61
2022/03/01 01:33:30;;;;;;;13.02;7.00;;;;;;;;;;4991774;28;20039;-61
2022/03/01 01:35:55;;;;;;;14.13;6.75;;;;;;;;;;4993656;28;20038;-61
2022/03/01 01:38:21;;;;;;;16.30;7.35;;;;;;;;;;4988361;28;20034;-61
2022/03/01 01:40:46;;;;;;;14.45;7.35;;;;;;;;;;4975462;28;20125;-61
2022/03/01 01:43:12;;;;;;;13.65;6.85;;;;;;;;;;4990295;28;20034;-61
2022/03/01 01:45:37;;;;;;;13.48;6.82;;;;;;;;;;4985960;28;20115;-62
2022/03/01 01:48:03;;;;;;;15.65;6.88;;;;;;;;;;4985475;28;20096;-62
2022/03/01 01:50:34;;;;;;;13.38;6.68;;;;;;;;;;4986997;28;20054;-61
2022/03/01 01:52:59;;;;;;;12.63;6.43;;;;;;;;;;4987041;28;20037;-62
2022/03/01 01:55:26;;;;;;;15.05;7.03;;;;;;;;;;4988245;28;20034;-61
2022/03/01 01:57:52;;;;;;;13.57;6.60;;;;;;;;;;5005166;28;20226;-62
2022/03/01 02:00:18;;;;;;;13.65;6.68;;;;;;;;;;4973674;28;20544;-61
2022/03/01 02:02:44;;;;;;;13.52;6.97;;;;;;;;;;4973451;28;20049;-61
2022/03/01 02:05:10;;;;;;;14.18;7.03;;;;;;;;;;4973428;28;20030;-62
2022/03/01 02:07:36;;;;;;;12.93;6.80;;;;;;;;;;4984191;28;20030;-61
2022/03/01 02:10:03;;;;;;;14.73;7.28;;;;;;;;;;4981212;28;20085;-62
2022/03/01 02:12:28;;;;;;;14.63;6.78;;;;;;;;;;4981639;28;20033;-61
2022/03/01 02:14:53;;;;;;;13.73;7.10;;;;;;;;;;4990798;28;20038;-61
2022/03/01 02:17:19;;;;;;;13.88;6.80;;;;;;;;;;4978385;28;20439;-62
2022/03/01 02:19:49;;;;;;;15.70;6.82;;;;;;;;;;4984913;28;20178;-61
2022/03/01 02:22:15;;;;;;;15.15;6.88;;;;;;;;;;4988130;28;20037;-61
2022/03/01 02:24:40;;;;;;;13.52;7.10;;;;;;;;;;4991422;28;20030;-61
2022/03/01 02:27:06;;;;;;;14.68;6.72;;;;;;;;;;4986350;28;20045;-61
2022/03/01 02:29:32;;;;;;;14.88;6.75;;;;;;;;;;4980115;28;20038;-62
2022/03/01 02:32:04;;;;;;;14.45;7.28;;;;;;;;;;4987727;28;20054;-62
2022/03/01 02:34:29;;;;;;;13.95;6.85;;;;;;;;;;4985574;28;20038;-61
2022/03/01 02:36:55;;;;;;;13.13;6.80;;;;;;;;;;4992222;28;20072;-61
2022/03/01 02:39:20;;;;;;;16.60;7.55;;;;;;;;;;4993287;28;20072;-62
2022/03/01 02:41:46;;;;;;;16.00;6.80;;;;;;;;;;4982301;28;20396;-62
2022/03/01 02:44:12;;;;;;;15.73;7.00;;;;;;;;;;4981650;28;20035;-62
2022/03/01 02:46:38;;;;;;;13.88;7.20;;;;;;;;;;4976255;28;20030;-62
2022/03/01 02:49:05;;;;;;;13.38;7.05;;;;;;;;;;4979408;28;20036;-62
2022/03/01 02:51:31;;;;;;;12.98;6.78;;;;;;;;;;4978128;28;20085;-62
2022/03/01 02:53:56;;;;;;;12.95;6.80;;;;;;;;;;4972646;28;20035;-62
2022/03/01 02:56:22;;;;;;;12.45;6.60;;;;;;;;;;4976901;28;20045;-62
2022/03/01 02:58:55;;;;;;;12.95;6.90;;;;;;;;;;4979653;28;20038;-61
2022/03/01 03:01:22;;;;;;;14.38;6.53;;;;;;;;;;4984417;28;20033;-61
2022/03/01 03:03:49;;;;;;;16.48;7.30;;;;;;;;;;4988650;28;20034;-61
2022/03/01 03:06:14;;;;;;;12.13;6.50;;;;;;;;;;4988326;28;20026;-61
2022/03/01 03:08:40;;;;;;;13.23;6.43;;;;;;;;;;4985946;28;20369;-61
2022/03/01 03:11:06;;;;;;;13.27;7.30;;;;;;;;;;4988018;28;20049;-61
2022/03/01 03:13:31;;;;;;;12.18;6.25;;;;;;;;;;4988965;28;20044;-61
2022/03/01 03:15:56;;;;;;;13.65;6.50;;;;;;;;;;4984636;28;20128;-61
2022/03/01 03:18:22;;;;;;;14.60;6.55;;;;;;;;;;4990616;28;20045;-61
2022/03/01 03:20:47;;;;;;;15.25;6.80;;;;;;;;;;4987641;28;20482;-61
2022/03/01 03:23:13;;;;;;;12.05;6.32;;;;;;;;;;4988996;28;20030;-61
2022/03/01 03:25:38;;;;;;;13.10;6.70;;;;;;;;;;4979652;28;20220;-61
2022/03/01 03:28:04;;;;;;;14.10;6.40;;;;;;;;;;4973066;28;20396;-61
2022/03/01 03:30:29;;;;;;;11.77;6.43;;;;;;;;;;4975621;28;20113;-61
2022/03/01 03:32:54;;;;;;;12.65;6.55;;;;;;;;;;4989350;28;20053;-61
2022/03/01 03:35:29;;;;;;;13.38;6.38;;;;;;;;;;4986213;28;20468;-61
2022/03/01 03:37:54;;;;;;;11.68;6.13;;;;;;;;;;4977695;28;20045;-61
2022/03/01 03:40:20;;;;;;;12.30;6.20;;;;;;;;;;4981720;28;20470;-61
2022/03/01 03:42:46;;;;;;;12.70;6.38;;;;;;;;;;4971869;28;20569;-62
2022/03/01 03:45:12;;;;;;;12.13;6.45;;;;;;;;;;4981093;28;20041;-62
2022/03/01 03:47:39;;;;;;;13.65;6.63;;;;;;;;;;4975780;28;20037;-62
2022/03/01 03:50:05;;;;;;;14.35;6.43;;;;;;;;;;5002602;28;20090;-61
2022/03/01 03:52:31;;;;;;;13.50;6.30;;;;;;;;;;4988507;28;20049;-62
2022/03/01 03:54:57;;;;;;;12.48;6.75;;;;;;;;;;4987972;28;20031;-61
2022/03/01 03:57:22;;;;;;;13.70;7.10;;;;;;;;;;4972511;28;20093;-61
2022/03/01 03:59:47;;;;;;;14.32;6.68;;;;;;;;;;4982970;28;20484;-62
2022/03/01 04:02:13;;;;;;;12.05;6.15;;;;;;;;;;4989518;28;20046;-62
2022/03/01 04:04:38;;;;;;;13.88;6.25;;;;;;;;;;4986716;28;20031;-62
2022/03/01 04:07:04;;;;;;;12.63;6.28;;;;;;;;;;4991549;28;20428;-62
2022/03/01 04:09:30;;;;;;;12.18;6.47;;;;;;;;;;4986468;28;20511;-61
2022/03/01 04:11:55;;;;;;;11.15;6.40;;;;;;;;;;4976841;28;20030;-61
2022/03/01 04:14:21;;;;;;;12.93;6.50;;;;;;;;;;4988376;28;20485;-61
2022/03/01 04:16:46;;;;;;;12.88;6.53;;;;;;;;;;4980696;28;20373;-62
2022/03/01 04:19:12;;;;;;;12.63;6.28;;;;;;;;;;4988361;28;20433;-61
2022/03/01 04:21:39;;;;;;;12.43;6.38;;;;;;;;;;4994297;28;20031;-61
2022/03/01 04:24:06;;;;;;;11.32;6.32;;;;;;;;;;4991651;28;20519;-62
2022/03/01 04:26:31;;;;;;;15.73;6.63;;;;;;;;;;4980640;28;20042;-61
2022/03/01 04:28:57;;;;;;;13.20;6.68;;;;;;;;;;4983325;28;20452;-61
2022/03/01 04:31:23;;;;;;;10.43;5.88;;;;;;;;;;4986235;28;20038;-61
2022/03/01 04:33:48;;;;;;;15.38;7.05;;;;;;;;;;4978991;28;20030;-61
2022/03/01 04:36:14;;;;;;;13.07;6.53;;;;;;;;;;4975232;28;20053;-61
2022/03/01 04:38:40;;;;;;;11.32;6.15;;;;;;;;;;4979647;28;20491;-61
2022/03/01 04:41:05;;;;;;;13.48;6.43;;;;;;;;;;4992865;28;20039;-61
2022/03/01 04:43:32;;;;;;;13.60;6.53;;;;;;;;;;4991323;28;20385;-62
2022/03/01 04:45:57;;;;;;;14.98;6.32;;;;;;;;;;4987189;28;20045;-61
2022/03/01 04:48:23;;;;;;;12.30;6.75;;;;;;;;;;4981471;28;20039;-62
2022/03/01 04:50:49;;;;;;;12.93;6.35;;;;;;;;;;4989189;28;20124;-61
2022/03/01 04:53:15;;;;;;;11.80;6.55;;;;;;;;;;4978491;28;20169;-61
2022/03/01 04:55:41;;;;;;;17.15;6.80;;;;;;;;;;4986609;28;20066;-61
2022/03/01 04:58:07;;;;;;;13.40;6.70;;;;;;;;;;4991247;28;20054;-61
2022/03/01 05:00:32;;;;;;;14.30;6.60;;;;;;;;;;4993671;28;20093;-61
2022/03/01 05:02:58;;;;;;;13.75;7.22;;;;;;;;;;4991040;28;20480;-62
2022/03/01 05:05:23;;;;;;;16.52;6.28;;;;;;;;;;4991106;28;20066;-61
2022/03/01 05:07:48;;;;;;;15.00;6.75;;;;;;;;;;4992731;28;20118;-61
2022/03/01 05:10:21;;;;;;;13.95;6.90;;;;;;;;;;4976904;28;20392;-61
2022/03/01 05:12:55;;;;;;;14.23;6.88;;;;;;;;;;4980493;28;20581;-61
2022/03/01 05:15:23;;;;;;;13.30;6.55;;;;;;;;;;4992347;28;20151;-62
2022/03/01 05:17:49;;;;;;;13.70;6.60;;;;;;;;;;4989024;28;20030;-61
2022/03/01 05:20:16;;;;;;;12.52;6.68;;;;;;;;;;4988585;28;20133;-62
2022/03/01 05:22:42;;;;;;;13.55;7.20;;;;;;;;;;4980151;28;20038;-62
2022/03/01 05:25:10;;;;;;;12.13;6.55;;;;;;;;;;4999339;28;20030;-62
2022/03/01 05:27:37;;;;;;;11.88;6.43;;;;;;;;;;4985445;28;20061;-62
2022/03/01 05:30:04;;;;;;;13.32;6.47;;;;;;;;;;4987625;28;20082;-62
2022/03/01 05:32:29;;;;;;;14.00;6.93;;;;;;;;;;4974148;28;20038;-61
2022/03/01 05:34:55;;;;;;;12.95;7.32;;;;;;;;;;4989902;28;20031;-61
2022/03/01 05:37:20;;;;;;;13.35;6.65;;;;;;;;;;4973964;28;20130;-61
2022/03/01 05:39:46;;;;;;;14.98;7.38;;;;;;;;;;4988388;28;20085;-61
2022/03/01 05:42:12;;;;;;;14.48;7.05;;;;;;;;;;4959967;28;20120;-62
2022/03/01 05:44:38;;;;;;;16.05;7.00;;;;;;;;;;4981211;28;20066;-62
2022/03/01 05:47:03;;;;;;;14.55;7.28;;;;;;;;;;4982897;28;20077;-62
2022/03/01 05:49:29;;;;;;;13.55;7.13;;;;;;;;;;5004968;28;20046;-61
2022/03/01 05:51:54;;;;;;;12.95;6.88;;;;;;;;;;4974269;28;20042;-62
2022/03/01 05:54:19;;;;;;;13.68;7.00;;;;;;;;;;4974933;28;20078;-61
2022/03/01 05:56:45;;;;;;;16.38;7.75;;;;;;;;;;4973644;28;20037;-61
2022/03/01 05:59:10;;;;;;;17.80;7.30;;;;;;;;;;4981416;28;20101;-62
2022/03/01 06:01:36;;;;;;;16.25;7.45;;;;;;;;;;4990843;28;20109;-61
2022/03/01 06:04:01;;;;;;;14.93;7.72;;;;;;;;;;4998989;28;20362;-61
2022/03/01 06:06:27;;;;;;;15.98;7.18;;;;;;;;;;4977214;28;20064;-69
2022/03/01 06:08:52;;;;;;;19.98;7.07;;;;;;;;;;4992993;28;20066;-61
2022/03/01 06:11:17;;;;;;;14.75;8.13;;;;;;;;;;4993257;28;20026;-66
2022/03/01 06:13:43;;;;;;;14.32;7.47;;;;;;;;;;4983643;28;20156;-61
2022/03/01 06:16:09;;;;;;;15.13;8.00;;;;;;;;;;4975150;28;20027;-64
2022/03/01 06:18:35;;;;;;;17.50;7.65;;;;;;;;;;4980308;28;20536;-63
2022/03/01 06:21:01;;;;;;;15.13;7.75;;;;;;;;;;4984637;28;20060;-62
2022/03/01 06:23:27;;;;;;;14.88;7.95;;;;;;;;;;4992590;28;20033;-63
2022/03/01 06:25:53;;;;;;;18.00;8.25;;;;;;;;;;4974772;28;20030;-63
2022/03/01 06:28:19;;;;;;;18.48;8.30;;;;;;;;;;4973231;28;20033;-64
2022/03/01 06:30:44;;;;;;;16.08;8.00;;;;;;;;;;5020035;28;20037;-63
2022/03/01 06:33:10;;;;;;;16.88;8.02;;;;;;;;;;5012202;28;20057;-63
2022/03/01 06:35:35;;;;;;;17.35;7.72;;;;;;;;;;4978655;28;20034;-63
2022/03/01 06:38:00;;;;;;;15.50;7.90;;;;;;;;;;4989029;28;20026;-63
2022/03/01 06:40:28;;;;;;;16.75;7.70;;;;;;;;;;4992298;28;20538;-63
2022/03/01 06:42:54;;;;;;;14.43;7.70;;;;;;;;;;4990684;28;20038;-62
2022/03/01 06:45:20;;;;;;;18.25;8.02;;;;;;;;;;4991013;28;20037;-64
2022/03/01 06:47:46;;;;;;;20.63;7.78;;;;;;;;;;4979533;28;20035;-64
2022/03/01 06:50:12;;;;;;;18.42;7.93;;;;;;;;;;4973824;28;20491;-63
2022/03/01 06:52:37;;;;;;;19.65;8.30;;;;;;;;;;4973922;28;20054;-64
2022/03/01 06:55:05;;;;;;;15.20;7.45;;;;;;;;;;4987623;28;20035;-65
2022/03/01 06:57:31;;;;;;;19.58;7.50;;;;;;;;;;4972257;28;20058;-64
2022/03/01 06:59:57;;;;;;;16.35;7.65;;;;;;;;;;4972453;28;20051;-64
2022/03/01 07:02:25;;;;;;;14.70;7.30;;;;;;;;;;4972491;28;20066;-63
2022/03/01 07:04:50;;;;;;;17.50;8.05;;;;;;;;;;4972507;28;20594;-64
2022/03/01 07:07:16;;;;;;;17.17;7.68;;;;;;;;;;4972762;28;20055;-65
2022/03/01 07:09:42;;;;;;;16.25;7.88;;;;;;;;;;4974563;28;20051;-64
2022/03/01 07:12:13;;;;;;;14.32;7.22;;;;;;;;;;4971433;28;20031;-64
2022/03/01 07:14:47;;;;;;;;;;;;;;;;;;4977869;28;20377;-64
2022/03/01 07:17:32;;;;;;;15.63;7.00;;;;;;;;;;4979256;28;20028;-64
2022/03/01 07:20:09;;;;;;;15.18;6.60;;;;;;;;;;4977082;28;20046;-61
2022/03/01 07:22:35;;;;;;;18.20;7.78;;;;;;;;;;5006447;28;20109;-63
2022/03/01 07:25:01;;;;;;;18.55;7.75;;;;;;;;;;4973251;28;20134;-65
2022/03/01 07:27:27;;;;;;;15.70;7.97;;;;;;;;;;4971566;28;20037;-63
2022/03/01 07:29:53;;;;;;;17.90;8.35;;;;;;;;;;4971857;28;20027;-66
2022/03/01 07:32:18;;;;;;;15.85;7.90;;;;;;;;;;4989900;28;20038;-64
2022/03/01 07:34:43;;;;;;;17.48;9.20;;;;;;;;;;5006241;28;20042;-63
2022/03/01 07:37:09;;;;;;;17.95;8.75;;;;;;;;;;4988170;28;20074;-65
2022/03/01 07:39:35;;;;;;;17.70;8.90;;;;;;;;;;4971412;28;20042;-64
2022/03/01 07:42:00;;;;;;;16.35;8.05;;;;;;;;;;4972716;28;20054;-64
2022/03/01 07:44:26;;;;;;;16.77;8.63;;;;;;;;;;4972303;28;20026;-65
2022/03/01 07:46:51;;;;;;;16.88;8.43;;;;;;;;;;4971477;28;20027;-64
2022/03/01 07:49:17;;;;;;;17.52;8.38;;;;;;;;;;4992149;28;20152;-65
2022/03/01 07:51:43;;;;;;;16.85;8.70;;;;;;;;;;4992855;28;20031;-63
2022/03/01 07:54:09;;;;;;;16.25;8.52;;;;;;;;;;4980561;28;20030;-63
2022/03/01 07:56:34;;;;;;;19.88;9.23;;;;;;;;;;5007072;28;20038;-62
2022/03/01 07:59:00;;;;;;;18.13;8.77;;;;;;;;;;5008550;28;20397;-62
2022/03/01 08:01:26;;;;;;;16.58;8.25;;;;;;;;;;4995253;28;20034;-62
2022/03/01 08:03:51;;;;;;;16.77;7.78;;;;;;;;;;4994189;28;20038;-63
2022/03/01 08:06:17;;;;;;;15.75;7.70;;;;;;;;;;4995728;28;20506;-61
2022/03/01 08:08:43;;;;;;;18.05;8.20;;;;;;;;;;4994409;28;20026;-62
2022/03/01 08:11:09;;;;;;;15.88;8.07;;;;;;;;;;4992230;28;20519;-62
2022/03/01 08:13:35;;;;;;;20.08;8.38;;;;;;;;;;4974877;28;20027;-62
2022/03/01 08:16:02;;;;;;;16.13;8.40;;;;;;;;;;4975800;28;20034;-63
2022/03/01 08:18:28;;;;;;;15.27;8.18;;;;;;;;;;4975451;28;20374;-61
2022/03/01 08:20:53;;;;;;;18.17;8.07;;;;;;;;;;4974953;28;20057;-63
2022/03/01 08:23:19;;;;;;;17.83;8.73;;;;;;;;;;4989580;28;20104;-64
2022/03/01 08:25:45;;;;;;;17.90;8.32;;;;;;;;;;4979302;28;20073;-63
2022/03/01 08:28:12;;;;;;;18.38;8.85;;;;;;;;;;4985075;28;20042;-63
2022/03/01 08:30:38;;;;;;;19.98;8.15;;;;;;;;;;4982319;28;20035;-64
2022/03/01 08:33:03;;;;;;;20.67;8.68;;;;;;;;;;4976480;28;20039;-64
2022/03/01 08:35:32;;;;;;;18.20;7.88;;;;;;;;;;4973781;28;20035;-63
2022/03/01 08:38:03;;;;;;;16.92;8.25;;;;;;;;;;4975614;28;20394;-64
2022/03/01 08:40:31;;;;;;;15.48;8.23;;;;;;;;;;4974159;28;20117;-63
2022/03/01 08:42:56;;;;;;;17.75;7.43;;;;;;;;;;4974649;28;20035;-63
2022/03/01 08:45:21;;;;;;;15.30;7.72;;;;;;;;;;4973841;28;20050;-63
2022/03/01 08:47:47;;;;;;;14.52;7.75;;;;;;;;;;4985647;28;20026;-63
2022/03/01 08:50:13;;;;;;;18.65;8.38;;;;;;;;;;4993215;28;20515;-63
2022/03/01 08:52:39;;;;;;;16.23;7.63;;;;;;;;;;4997239;28;20239;-63
2022/03/01 08:55:08;;;;;;;15.00;7.60;;;;;;;;;;4975331;28;20038;-63
2022/03/01 08:57:35;;;;;;;16.20;6.90;;;;;;;;;;4974175;28;20043;-63
2022/03/01 09:00:03;;;;;;;14.00;6.72;;;;;;;;;;4979851;28;20026;-63
2022/03/01 09:02:28;;;;;;;14.80;7.30;;;;;;;;;;4994163;28;20030;-63
2022/03/01 09:04:54;;;;;;;14.55;7.30;;;;;;;;;;4986522;28;20166;-63
2022/03/01 09:07:19;;;;;;;13.07;7.30;;;;;;;;;;4990447;28;20042;-61
2022/03/01 09:09:44;;;;;;;13.98;6.78;;;;;;;;;;4973147;28;20031;-63
2022/03/01 09:12:10;;;;;;;17.10;7.95;;;;;;;;;;4982127;28;20030;-62
2022/03/01 09:14:35;;;;;;;17.13;7.40;;;;;;;;;;4992558;28;20118;-63
2022/03/01 09:17:01;;;;;;;15.80;7.10;;;;;;;;;;4992688;28;20392;-62
2022/03/01 09:19:26;;;;;;;15.95;7.30;;;;;;;;;;4979396;28;20058;-62
2022/03/01 09:21:52;;;;;;;13.70;6.78;;;;;;;;;;4979930;28;20026;-62
2022/03/01 09:24:18;;;;;;;12.90;6.43;;;;;;;;;;4992565;28;20436;-62
2022/03/01 09:26:43;;;;;;;14.23;6.10;;;;;;;;;;4992441;28;20041;-63
2022/03/01 09:29:08;;;;;;;12.85;6.35;;;;;;;;;;4992079;28;20026;-61
2022/03/01 09:31:34;;;;;;;12.90;6.30;;;;;;;;;;4992619;28;20031;-61
2022/03/01 09:33:59;;;;;;;14.73;6.68;;;;;;;;;;4986909;28;20397;-62
2022/03/01 09:36:25;;;;;;;13.90;6.32;;;;;;;;;;4974009;28;20062;-61
2022/03/01 09:38:51;;;;;;;13.10;6.60;;;;;;;;;;4987714;28;20086;-64
2022/03/01 09:41:16;;;;;;;13.98;6.88;;;;;;;;;;4981916;28;20033;-63
2022/03/01 09:43:42;;;;;;;12.25;6.30;;;;;;;;;;4988135;28;20056;-62
2022/03/01 09:46:10;;;;;;;12.55;6.68;;;;;;;;;;4988336;28;20030;-63
2022/03/01 09:48:36;;;;;;;13.27;6.80;;;;;;;;;;4986524;28;20034;-63
2022/03/01 09:51:04;;;;;;;12.85;6.57;;;;;;;;;;4991935;28;20034;-63
2022/03/01 09:53:30;;;;;;;13.23;6.53;;;;;;;;;;4993369;28;20030;-64
2022/03/01 09:55:59;;;;;;;11.00;6.20;;;;;;;;;;4992223;28;20038;-62
2022/03/01 09:58:25;;;;;;;12.60;6.13;;;;;;;;;;4992697;28;20038;-62
2022/03/01 10:00:50;;;;;;;15.00;6.93;;;;;;;;;;4992228;28;20656;-62
2022/03/01 10:03:22;;;;;;;14.07;6.40;;;;;;;;;;4992307;28;20037;-62
2022/03/01 10:05:47;;;;;;;;;;;;;;;;;;4974039;28;20093;-61
2022/03/01 10:08:18;;;;;;;13.70;6.13;;;;;;;;;;4998646;28;19917;-61
2022/03/01 10:10:47;;;;;;;12.13;6.38;;;;;;;;;;4991800;28;20038;-64
2022/03/01 10:13:25;;;;;;;13.20;6.65;;;;;;;;;;4992800;28;20066;-63
2022/03/01 10:15:51;;;;;;;16.08;6.65;;;;;;;;;;5022604;28;20022;-63
2022/03/01 10:18:18;;;;;;;14.63;6.65;;;;;;;;;;5022776;28;20036;-64
2022/03/01 10:20:45;;;;;;;12.25;6.47;;;;;;;;;;4974070;28;20071;-63
2022/03/01 10:23:12;;;;;;;13.40;6.15;;;;;;;;;;4983282;28;20479;-62
2022/03/01 10:25:42;;;;;;;13.63;6.88;;;;;;;;;;4992380;28;20112;-62
2022/03/01 10:28:17;;;;;;;12.30;6.57;;;;;;;;;;4992634;28;20030;-63
2022/03/01 10:30:42;;;;;;;13.70;6.32;;;;;;;;;;4978762;28;20054;-62
2022/03/01 10:33:13;;;;;;;12.43;5.47;;;;;;;;;;4982632;28;20396;-62
2022/03/01 10:35:41;;;;;;;12.55;6.40;;;;;;;;;;4976838;28;20503;-64
2022/03/01 10:38:07;;;;;;;14.30;6.13;;;;;;;;;;4984201;28;20038;-64
2022/03/01 10:40:34;;;;;;;13.63;6.40;;;;;;;;;;4991069;28;20087;-64
2022/03/01 10:43:11;;;;;;;12.85;6.53;;;;;;;;;;4992302;28;20068;-62
2022/03/01 10:45:46;;;;;;;11.35;5.40;;;;;;;;;;4991728;28;20483;-64
2022/03/01 10:48:23;;;;;;;13.23;6.43;;;;;;;;;;4992260;28;20035;-64
2022/03/01 10:51:01;;;;;;;14.25;7.13;;;;;;;;;;4973720;28;20117;-64
2022/03/01 10:53:45;;;;;;;12.27;7.00;;;;;;;;;;4987326;28;20030;-62
2022/03/01 10:56:13;;;;;;;14.18;7.32;;;;;;;;;;4992370;28;20050;-62
2022/03/01 10:58:41;;;;;;;15.90;6.60;;;;;;;;;;4991101;28;20034;-63
2022/03/01 11:01:07;;;;;;;12.70;6.43;;;;;;;;;;4987707;28;20034;-64
2022/03/01 11:03:33;;;;;;;14.27;6.43;;;;;;;;;;4992084;28;20034;-60
2022/03/01 11:06:00;;;;;;;12.85;6.38;;;;;;;;;;4980822;28;20095;-64
2022/03/01 11:08:40;;;;;;;13.55;6.40;;;;;;;;;;4992374;28;20030;-63
2022/03/01 11:11:09;;;;;;;14.13;6.53;;;;;;;;;;4992467;28;20038;-64
2022/03/01 11:13:37;;;;;;;11.95;6.10;;;;;;;;;;4991472;28;20078;-64
2022/03/01 11:16:43;;;;;;;13.15;6.72;;;;;;;;;;4990563;28;20125;-62
2022/03/01 11:19:27;;;;;;;13.73;6.78;;;;;;;;;;4986475;28;20038;-63
2022/03/01 11:21:53;;;;;;;13.95;6.55;;;;;;;;;;4988828;28;20096;-64
2022/03/01 11:24:21;;;;;;;12.40;6.10;;;;;;;;;;4984744;28;20094;-62
2022/03/01 11:26:47;;;;;;;14.70;6.55;;;;;;;;;;4987527;28;20113;-62
2022/03/01 11:29:15;;;;;;;12.23;6.18;;;;;;;;;;4988471;28;20030;-62
2022/03/01 11:31:42;;;;;;;12.90;6.70;;;;;;;;;;4995533;28;20038;-63
2022/03/01 11:34:13;;;;;;;12.65;6.70;;;;;;;;;;4988228;28;20030;-63
2022/03/01 11:36:38;;;;;;;13.77;7.03;;;;;;;;;;4994854;28;20030;-62
2022/03/01 11:39:13;;;;;;;11.45;6.20;;;;;;;;;;4994910;28;20045;-62
2022/03/01 11:41:47;;;;;;;15.85;6.82;;;;;;;;;;4977427;28;20126;-62
2022/03/01 11:44:17;;;;;;;12.30;5.88;;;;;;;;;;5013642;28;20033;-62
2022/03/01 11:46:44;;;;;;;13.55;5.97;;;;;;;;;;4987302;28;20122;-63
2022/03/01 11:49:12;;;;;;;11.43;6.35;;;;;;;;;;4991429;28;20052;-64
2022/03/01 11:51:39;;;;;;;11.05;5.90;;;;;;;;;;4990153;28;20484;-62
2022/03/01 11:54:09;;;;;;;10.90;6.10;;;;;;;;;;4975768;28;20456;-63
2022/03/01 11:56:36;;;;;;;11.98;6.22;;;;;;;;;;4975891;28;20045;-65
2022/03/01 11:59:10;;;;;;;12.88;6.22;;;;;;;;;;4977845;28;20105;-65
2022/03/01 12:01:36;;;;;;;14.40;6.13;;;;;;;;;;4998592;28;20070;-63
2022/03/01 12:04:07;;;;;;;12.98;6.68;;;;;;;;;;4976244;28;20038;-63
2022/03/01 12:06:36;;;;;;;12.82;6.20;;;;;;;;;;4975428;28;20045;-64
2022/03/01 12:09:05;;;;;;;11.43;6.30;;;;;;;;;;4994775;28;20086;-64
2022/03/01 12:11:42;;;;;;;12.43;6.22;;;;;;;;;;4993930;28;20026;-65
2022/03/01 12:14:09;;;;;;;11.45;6.30;;;;;;;;;;4995222;28;20026;-65
2022/03/01 12:16:35;;;;;;;12.25;6.07;;;;;;;;;;4986205;28;20468;-64
2022/03/01 12:19:23;;;;;;;10.57;5.93;;;;;;;;;;4980802;28;20110;-64
2022/03/01 12:21:54;;;;;;;11.70;6.47;;;;;;;;;;4974855;28;20133;-64
2022/03/01 12:24:20;;;;;;;;;;;;;;;;;;4994137;28;20034;-64
2022/03/01 12:26:51;;;;;;;12.20;6.20;;;;;;;;;;4989631;28;20002;-64
2022/03/01 12:29:21;;;;;;;10.80;6.20;;;;;;;;;;4987379;28;20495;-63
2022/03/01 12:31:59;;;;;;;12.52;6.47;;;;;;;;;;4998505;28;20036;-62
2022/03/01 12:34:26;;;;;;;11.57;6.22;;;;;;;;;;4995410;28;20038;-66
2022/03/01 12:36:55;;;;;;;12.02;6.32;;;;;;;;;;4974566;28;20119;-64
2022/03/01 12:40:06;;;;;;;11.23;6.38;;;;;;;;;;4975648;28;20026;-65
2022/03/01 12:42:31;;;;;;;13.05;6.55;;;;;;;;;;4982118;28;20081;-63
2022/03/01 12:44:56;;;;;;;13.35;7.15;;;;;;;;;;4974904;28;20051;-65
2022/03/01 12:47:22;;;;;;;12.05;6.40;;;;;;;;;;4975432;28;20031;-65
2022/03/01 12:49:50;;;;;;;11.77;6.32;;;;;;;;;;5018359;28;20109;-63
2022/03/01 12:52:20;;;;;;;10.88;6.32;;;;;;;;;;4994426;28;20476;-63
2022/03/01 12:55:14;;;;;;;13.10;6.32;;;;;;;;;;4992718;28;20030;-63
2022/03/01 12:57:40;;;;;;;11.30;5.95;;;;;;;;;;4993341;28;20035;-64
2022/03/01 13:00:12;;;;;;;11.75;6.18;;;;;;;;;;4992992;28;20042;-64
2022/03/01 13:02:37;;;;;;;14.90;6.38;;;;;;;;;;4991815;28;20046;-63
2022/03/01 13:05:04;;;;;;;12.02;6.60;;;;;;;;;;4994539;28;20042;-64
2022/03/01 13:07:32;;;;;;;13.40;6.07;;;;;;;;;;4994223;28;20113;-63
2022/03/01 13:10:04;;;;;;;12.40;6.43;;;;;;;;;;4983584;28;20041;-64
2022/03/01 13:12:29;;;;;;;11.98;6.63;;;;;;;;;;4974555;28;20030;-64
2022/03/01 13:14:55;;;;;;;13.00;6.53;;;;;;;;;;4981021;28;20041;-64
2022/03/01 13:17:21;;;;;;;11.93;6.63;;;;;;;;;;4992458;28;20022;-63
2022/03/01 13:19:46;;;;;;;12.52;6.90;;;;;;;;;;4973818;28;20100;-63
2022/03/01 13:22:12;;;;;;;15.43;6.65;;;;;;;;;;4991574;28;20380;-64
2022/03/01 13:24:49;;;;;;;13.27;6.82;;;;;;;;;;4990671;28;20058;-64
2022/03/01 13:27:20;;;;;;;12.57;6.53;;;;;;;;;;4990154;28;20085;-63
2022/03/01 13:29:46;;;;;;;12.90;6.95;;;;;;;;;;4974279;28;20030;-62
2022/03/01 13:32:15;;;;;;;13.35;7.10;;;;;;;;;;4991866;28;20100;-61
2022/03/01 13:34:45;;;;;;;16.80;7.15;;;;;;;;;;4973213;28;20504;-61
2022/03/01 13:37:15;;;;;;;13.18;7.10;;;;;;;;;;4983760;28;20045;-63
2022/03/01 13:39:42;;;;;;;14.73;6.95;;;;;;;;;;4984651;28;20397;-63
2022/03/01 13:42:14;;;;;;;12.13;7.05;;;;;;;;;;4978545;28;20042;-63
2022/03/01 13:44:43;;;;;;;14.77;7.22;;;;;;;;;;4990358;28;20034;-61
2022/03/01 13:47:26;;;;;;;12.23;6.90;;;;;;;;;;4992835;28;20046;-61
2022/03/01 13:50:04;;;;;;;14.07;7.13;;;;;;;;;;4973491;28;20525;-63
2022/03/01 13:52:33;;;;;;;14.20;7.57;;;;;;;;;;4993344;28;20037;-64
2022/03/01 13:55:01;;;;;;;11.63;7.40;;;;;;;;;;4992891;28;20035;-63
2022/03/01 13:57:34;;;;;;;16.88;7.72;;;;;;;;;;4980009;28;20118;-64
2022/03/01 14:00:10;;;;;;;14.20;7.68;;;;;;;;;;4972624;28;20031;-63
2022/03/01 14:02:36;;;;;;;14.40;7.47;;;;;;;;;;4979448;28;20034;-62
2022/03/01 14:05:11;;;;;;;13.63;6.97;;;;;;;;;;5024218;28;20038;-63
2022/03/01 14:07:37;;;;;;;14.07;7.43;;;;;;;;;;4973113;28;20473;-62
2022/03/01 14:10:05;;;;;;;13.73;7.10;;;;;;;;;;4974567;28;20079;-63
2022/03/01 14:12:37;;;;;;;17.67;7.75;;;;;;;;;;4990928;28;20076;-65
2022/03/01 14:15:07;;;;;;;14.65;7.22;;;;;;;;;;4992103;28;20022;-63
2022/03/01 14:17:33;;;;;;;15.60;7.28;;;;;;;;;;4992527;28;20141;-62
2022/03/01 14:19:59;;;;;;;14.13;7.15;;;;;;;;;;4991108;28;20129;-62
2022/03/01 14:22:26;;;;;;;14.57;7.60;;;;;;;;;;4993417;28;20042;-64
2022/03/01 14:24:55;;;;;;;12.55;6.90;;;;;;;;;;4991945;28;20053;-62
2022/03/01 14:27:21;;;;;;;13.07;7.70;;;;;;;;;;4990633;28;20085;-64
2022/03/01 14:29:46;;;;;;;14.48;7.20;;;;;;;;;;4990299;28;20440;-64
2022/03/01 14:32:12;;;;;;;14.85;7.38;;;;;;;;;;4989296;28;20030;-63